createdAt,value
2022-10-14T00:03:30.622Z,100806.31
2022-10-14T00:08:32.945Z,100802.81
2022-10-14T00:13:35.817Z,100799.25
2022-10-14T00:18:38.149Z,100779.78
2022-10-14T00:23:40.474Z,100789.63
2022-10-14T00:28:42.743Z,100798.38
2022-10-14T00:33:46.039Z,100787.59
2022-10-14T00:38:48.763Z,100787.41
2022-10-14T00:43:57.406Z,100796.75
2022-10-14T00:49:03.886Z,100761.06
2022-10-14T00:54:06.790Z,100787.47
2022-10-14T00:59:09.357Z,100754.44
2022-10-14T01:04:11.973Z,100714.19
2022-10-14T01:09:30.993Z,100741.00
2022-10-14T01:15:00.686Z,100739.97
2022-10-14T01:20:19.276Z,100755.75
2022-10-14T01:25:34.403Z,100754.06
2022-10-14T01:30:44.807Z,100712.97
2022-10-14T01:36:18.922Z,100724.59
2022-10-14T01:41:29.467Z,100724.38
2022-10-14T01:46:33.296Z,100680.56
2022-10-14T01:51:57.502Z,100694.88
2022-10-14T01:57:03.313Z,100660.66
2022-10-14T02:02:05.608Z,100678.50
2022-10-14T02:07:07.811Z,100677.44
2022-10-14T02:12:19.271Z,100673.91
2022-10-14T02:17:52.230Z,100647.72
2022-10-14T02:23:01.001Z,100666.22
2022-10-14T02:28:08.326Z,100658.53
2022-10-14T02:33:10.883Z,100674.75
2022-10-14T02:38:13.152Z,100675.16
2022-10-14T02:43:15.416Z,100651.31
2022-10-14T02:48:17.588Z,100666.47
2022-10-14T02:53:19.978Z,100650.84
2022-10-14T02:58:22.171Z,100642.34
2022-10-14T03:03:24.512Z,100651.31
2022-10-14T03:08:26.849Z,100641.50
2022-10-14T03:13:29.097Z,100631.19
2022-10-14T03:18:31.956Z,100660.66
2022-10-14T03:23:34.252Z,100676.66
2022-10-14T03:28:36.493Z,100663.75
2022-10-14T03:33:38.910Z,100673.94
2022-10-14T03:38:41.213Z,100654.81
2022-10-14T03:43:43.376Z,100666.03
2022-10-14T03:48:45.744Z,100680.38
2022-10-14T03:53:47.889Z,100681.41
2022-10-14T03:58:50.911Z,100647.34
2022-10-14T04:03:53.299Z,100649.00
2022-10-14T04:08:55.478Z,100652.72
2022-10-14T04:14:01.818Z,100652.72
2022-10-14T04:19:04.529Z,100628.25
2022-10-14T04:24:08.563Z,100639.66
2022-10-14T04:29:11.116Z,100618.69
2022-10-14T04:34:13.532Z,100607.06
2022-10-14T04:39:15.761Z,100631.75
2022-10-14T04:44:18.256Z,100640.47
2022-10-14T04:49:20.422Z,100629.06
2022-10-14T04:54:22.758Z,100607.06
2022-10-14T04:59:25.106Z,100616.22
2022-10-14T05:04:27.749Z,100600.63
2022-10-14T05:09:30.167Z,100601.06
2022-10-14T05:14:32.516Z,100595.25
2022-10-14T05:19:34.849Z,100601.47
2022-10-14T05:24:37.717Z,100600.22
2022-10-14T05:29:40.021Z,100598.34
2022-10-14T05:34:42.696Z,100546.47
2022-10-14T05:39:45.050Z,100580.50
2022-10-14T05:44:47.481Z,100584.84
2022-10-14T05:49:49.810Z,100585.69
2022-10-14T05:54:52.006Z,100592.94
2022-10-14T05:59:54.261Z,100605.00
2022-10-14T06:04:56.444Z,100613.94
2022-10-14T06:09:58.683Z,100622.25
2022-10-14T06:15:00.878Z,100616.19
2022-10-14T06:20:03.702Z,100610.19
2022-10-14T06:25:06.521Z,100614.34
2022-10-14T06:30:09.429Z,100618.50
2022-10-14T06:35:11.843Z,100610.81
2022-10-14T06:40:14.042Z,100628.69
2022-10-14T06:45:16.463Z,100639.28
2022-10-14T06:50:18.794Z,100637.19
2022-10-14T06:55:21.299Z,100640.09
2022-10-14T07:00:23.650Z,100596.06
2022-10-14T07:05:27.185Z,100637.38
2022-10-14T07:10:29.387Z,100626.19
2022-10-14T07:15:35.320Z,100633.44
2022-10-14T07:26:04.418Z,100636.97
2022-10-14T07:31:09.887Z,100591.09
2022-10-14T07:36:18.406Z,100615.81
2022-10-14T07:41:25.643Z,100634.09
2022-10-14T07:46:32.609Z,100617.47
2022-10-14T07:51:36.393Z,100644.91
2022-10-14T07:56:40.221Z,100642.38
2022-10-14T08:01:43.525Z,100627.84
2022-10-14T08:06:49.096Z,100626.78
2022-10-14T08:11:51.559Z,100624.09
2022-10-14T08:16:53.906Z,100607.28
2022-10-14T08:21:56.457Z,100613.50
2022-10-14T08:27:01.334Z,100618.31
2022-10-14T08:32:03.933Z,100600.00
2022-10-14T08:37:06.266Z,100624.09
2022-10-14T08:42:44.555Z,100625.56
2022-10-14T08:47:49.002Z,100612.25
2022-10-14T08:52:55.760Z,100624.75
2022-10-14T08:58:21.197Z,100614.13
2022-10-14T09:03:33.304Z,100609.56
2022-10-14T09:08:42.960Z,100606.25
2022-10-14T09:13:49.976Z,100610.00
2022-10-14T09:18:58.423Z,100629.09
2022-10-14T09:24:10.223Z,100623.25
2022-10-14T09:29:33.918Z,100631.16
2022-10-14T09:34:47.918Z,100630.31
2022-10-14T09:39:51.768Z,100643.19
2022-10-14T09:45:08.538Z,100640.28
2022-10-14T09:50:19.860Z,100616.84
2022-10-14T09:55:24.862Z,100624.50
2022-10-14T10:00:29.833Z,100613.31
2022-10-14T10:05:34.937Z,100622.44
2022-10-14T10:10:37.544Z,100628.91
2022-10-14T10:15:39.769Z,100633.88
2022-10-14T10:20:41.959Z,100603.75
2022-10-14T10:25:44.830Z,100616.66
2022-10-14T10:31:05.854Z,100640.09
2022-10-14T10:36:29.607Z,100636.34
2022-10-14T10:41:40.614Z,100633.22
2022-10-14T10:46:45.524Z,100628.00
2022-10-14T10:51:56.438Z,100629.25
2022-10-14T10:57:13.497Z,100615.19
2022-10-14T11:02:26.736Z,100611.63
2022-10-14T11:08:19.368Z,100619.53
2022-10-14T11:13:51.692Z,100614.16
2022-10-14T11:19:15.093Z,100608.34
2022-10-14T11:24:36.217Z,100612.66
2022-10-14T11:30:01.721Z,100610.78
2022-10-14T11:35:10.291Z,100604.13
2022-10-14T11:40:37.378Z,100601.81
2022-10-14T11:45:59.213Z,100555.78
2022-10-14T11:51:37.504Z,100584.19
2022-10-14T11:57:10.123Z,100588.94
2022-10-14T12:02:41.391Z,100587.50
2022-10-14T12:07:57.225Z,100566.75
2022-10-14T12:13:01.359Z,100543.94
2022-10-14T12:18:06.274Z,100549.34
2022-10-14T12:23:15.556Z,100553.06
2022-10-14T12:28:21.121Z,100575.22
2022-10-14T12:33:23.404Z,100563.00
2022-10-14T12:38:27.702Z,100568.81
2022-10-14T12:43:30.382Z,100560.72
2022-10-14T12:48:35.528Z,100561.72
2022-10-14T12:53:42.268Z,100560.88
2022-10-14T12:59:01.892Z,100566.91
2022-10-14T13:04:08.831Z,100548.84
2022-10-14T13:09:14.185Z,100565.63
2022-10-14T13:14:32.413Z,100563.53
2022-10-14T13:19:34.585Z,100555.38
2022-10-14T13:24:42.100Z,100552.84
2022-10-14T13:30:06.221Z,100545.00
2022-10-14T13:35:23.916Z,100492.09
2022-10-14T13:40:39.266Z,100529.44
2022-10-14T13:45:59.746Z,100526.09
2022-10-14T13:51:31.431Z,100530.25
2022-10-14T13:56:37.687Z,100519.38
2022-10-14T14:01:40.388Z,100519.28
2022-10-14T14:07:02.986Z,100534.63
2022-10-14T14:12:13.875Z,100526.50
2022-10-14T14:17:22.750Z,100527.13
2022-10-14T14:22:30.875Z,100523.78
2022-10-14T14:27:34.779Z,100502.59
2022-10-14T14:32:37.068Z,100529.53
2022-10-14T14:37:55.818Z,100517.09
2022-10-14T14:43:03.419Z,100524.09
2022-10-14T14:48:08.248Z,100530.72
2022-10-14T14:53:39.906Z,100539.72
2022-10-14T14:59:09.655Z,100525.22
2022-10-14T15:04:21.484Z,100529.97
2022-10-14T15:09:33.832Z,100541.56
2022-10-14T15:14:50.340Z,100540.13
2022-10-14T15:19:52.577Z,100524.41
2022-10-14T15:25:01.674Z,100531.47
2022-10-14T15:30:40.074Z,100542.50
2022-10-14T15:35:44.291Z,100521.97
2022-10-14T15:40:48.531Z,100530.69
2022-10-14T15:46:11.201Z,100536.31
2022-10-14T15:51:18.516Z,100510.41
2022-10-14T15:56:23.864Z,100534.94
2022-10-14T16:01:26.749Z,100535.16
2022-10-14T16:06:33.205Z,100564.38
2022-10-14T16:11:35.514Z,100551.16
2022-10-14T16:16:42.739Z,100571.25
2022-10-14T16:21:45.667Z,100567.56
2022-10-14T16:26:51.886Z,100579.81
2022-10-14T16:31:54.865Z,100580.41
2022-10-14T16:36:57.146Z,100573.78
2022-10-14T16:41:59.877Z,100580.00
2022-10-14T16:47:17.543Z,100574.41
2022-10-14T16:52:20.156Z,100575.88
2022-10-14T16:57:22.620Z,100549.69
2022-10-14T17:02:32.176Z,100563.16
2022-10-14T17:07:34.596Z,100558.03
2022-10-14T17:12:37.452Z,100553.69
2022-10-14T17:17:40.898Z,100553.28
2022-10-14T17:22:43.364Z,100567.19
2022-10-14T17:27:45.918Z,100554.31
2022-10-14T17:32:48.642Z,100533.97
2022-10-14T17:37:52.317Z,100573.81
2022-10-14T17:42:54.837Z,100561.41
2022-10-14T17:47:57.640Z,100573.25
2022-10-14T17:53:00.136Z,100573.25
2022-10-14T17:58:02.671Z,100583.16
2022-10-14T18:03:05.881Z,100579.03
2022-10-14T18:08:10.867Z,100552.69
2022-10-14T18:13:13.124Z,100570.75
2022-10-14T18:18:15.316Z,100532.53
2022-10-14T18:23:17.890Z,100564.25
2022-10-14T18:28:21.550Z,100573.41
2022-10-14T18:33:24.104Z,100578.19
2022-10-14T18:38:26.318Z,100567.41
2022-10-14T18:43:28.972Z,100582.13
2022-10-14T18:48:31.525Z,100589.41
2022-10-14T18:53:34.290Z,100585.88
2022-10-14T18:58:37.812Z,100602.47
2022-10-14T19:03:43.198Z,100565.75
2022-10-14T19:08:46.648Z,100604.16
2022-10-14T19:13:55.567Z,100594.41
2022-10-14T19:19:00.250Z,100588.59
2022-10-14T19:24:03.828Z,100590.25
2022-10-14T19:29:10.505Z,100612.69
2022-10-14T19:34:16.620Z,100615.81
2022-10-14T19:39:20.396Z,100618.28
2022-10-14T19:44:22.843Z,100575.94
2022-10-14T19:49:25.205Z,100594.41
2022-10-14T19:54:27.466Z,100610.78
2022-10-14T19:59:29.912Z,100608.53
2022-10-14T20:04:32.325Z,100603.53
2022-10-14T20:09:34.743Z,100614.56
2022-10-14T20:14:36.972Z,100584.88
2022-10-14T20:19:39.336Z,100606.06
2022-10-14T20:24:41.743Z,100613.91
2022-10-14T20:29:44.336Z,100603.31
2022-10-14T20:34:47.092Z,100598.97
2022-10-14T20:39:49.903Z,100586.53
2022-10-14T20:44:52.380Z,100604.56
2022-10-14T20:49:54.635Z,100612.88
2022-10-14T20:54:57.512Z,100596.47
2022-10-14T20:59:59.752Z,100593.38
2022-10-14T21:05:02.021Z,100592.31
2022-10-14T21:10:05.194Z,100608.91
2022-10-14T21:15:09.084Z,100592.53
2022-10-14T21:20:11.388Z,100595.03
2022-10-14T21:25:13.905Z,100588.38
2022-10-14T21:30:16.306Z,100570.09
2022-10-14T21:35:18.536Z,100596.06
2022-10-14T21:40:20.935Z,100564.09
2022-10-14T21:45:23.469Z,100576.13
2022-10-14T21:50:25.945Z,100580.50
2022-10-14T21:55:28.127Z,100593.97
2022-10-14T22:00:30.638Z,100578.63
2022-10-14T22:05:35.038Z,100574.88
2022-10-14T22:10:41.319Z,100569.69
2022-10-14T22:15:44.116Z,100530.69
2022-10-14T22:20:46.506Z,100558.09
2022-10-14T22:25:49.023Z,100570.31
2022-10-14T22:30:51.541Z,100563.22
2022-10-14T22:35:53.754Z,100574.03
2022-10-14T22:40:56.002Z,100577.56
2022-10-14T22:46:12.607Z,100577.78
2022-10-14T22:51:17.588Z,100579.84
2022-10-14T22:56:24.909Z,100577.97
2022-10-14T23:01:30.729Z,100582.56
2022-10-14T23:06:33.661Z,100572.00
2022-10-14T23:11:36.169Z,100565.53
2022-10-14T23:16:39.634Z,100566.59
2022-10-14T23:21:42.118Z,100568.44
2022-10-14T23:26:44.372Z,100549.56
2022-10-14T23:31:46.600Z,100567.38
2022-10-14T23:36:48.965Z,100560.97
2022-10-14T23:41:51.328Z,100552.88
2022-10-14T23:46:53.709Z,100584.63
2022-10-14T23:51:56.308Z,100590.47
2022-10-14T23:56:58.710Z,100569.69
